METAR Data
IDs: Format: Raw Decoded Include TAF

Data at: 0143 UTC 19 Nov 2018

METAR for:PAVC (King Cove Arpt, AK, US)
Text:PAVC 190056Z AUTO 28020G40KT 4SM -RA FEW016 OVC025 05/01 A2963 RMK AO2 PK WND 29040/0047 SLP038 P0002 T00500011
Temperature: 5.0°C ( 41°F)
Dewpoint: 1.1°C ( 34°F) [RH = 76%]
Pressure (altimeter):29.63 inches Hg (1003.5 mb) [Sea level pressure: 1003.8 mb]
Winds:from the W (280 degrees) at 23 MPH (20 knots; 10.3 m/s) gusting to 46 MPH (40 knots; 20.6 m/s)
Visibility: 4 sm ( 6 km)
Ceiling:2500 feet AGL
Clouds: few clouds at 1600 feet AGL, overcast cloud deck at 2500 feet AGL
Weather:-RA (light rain)
QC Flag:automated observation with no human augmentation
Text:PAVC 190004Z AUTO 28018G31KT 5SM -RA FEW015 OVC025 05/02 A2962 RMK AO2 PK WND 27031/0002 P0001
Temperature: 5.0°C ( 41°F)
Dewpoint: 2.0°C ( 36°F) [RH = 81%]
Pressure (altimeter):29.62 inches Hg (1003.1 mb)
Winds:from the W (280 degrees) at 21 MPH (18 knots; 9.3 m/s) gusting to 36 MPH (31 knots; 15.9 m/s)
Visibility: 5 sm ( 8 km)
Ceiling:2500 feet AGL
Clouds: few clouds at 1500 feet AGL, overcast cloud deck at 2500 feet AGL
Weather:-RA (light rain)
QC Flag:automated observation with no human augmentation
Text:PAVC 182356Z AUTO 28013G27KT 2 1/2SM -RA FEW015 BKN025 OVC031 05/02 A2962 RMK AO2 PK WND 25027/2351 VIS 1 1/2V5 SLP034 P0004 60004 T00500022 10056 20039 53007
Temperature: 5.0°C ( 41°F)
Dewpoint: 2.2°C ( 36°F) [RH = 82%]
Pressure (altimeter):29.62 inches Hg (1003.1 mb) [Sea level pressure: 1003.4 mb]
Winds:from the W (280 degrees) at 15 MPH (13 knots; 6.7 m/s) gusting to 31 MPH (27 knots; 13.9 m/s)
Visibility: 2.50 sm ( 4.02 km)
Ceiling:2500 feet AGL
Clouds: few clouds at 1500 feet AGL, broken clouds at 2500 feet AGL, overcast cloud deck at 3100 feet AGL
Weather:-RA (light rain)
QC Flag:automated observation with no human augmentation
Text:PAVC 182347Z AUTO 28019G25KT 2 1/2SM RA FEW017 BKN022 OVC027 05/02 A2961 RMK AO2 VIS 1 1/2V5 P0003
Temperature: 5.0°C ( 41°F)
Dewpoint: 2.0°C ( 36°F) [RH = 81%]
Pressure (altimeter):29.61 inches Hg (1002.8 mb)
Winds:from the W (280 degrees) at 22 MPH (19 knots; 9.8 m/s) gusting to 29 MPH (25 knots; 12.9 m/s)
Visibility: 2.50 sm ( 4.02 km)
Ceiling:2200 feet AGL
Clouds: few clouds at 1700 feet AGL, broken clouds at 2200 feet AGL, overcast cloud deck at 2700 feet AGL
Weather:RA (moderate rain)
QC Flag:automated observation with no human augmentation
Text:PAVC 182256Z AUTO 28012G17KT 7SM -RA SCT019 BKN024 OVC032 05/03 A2961 RMK AO2 RAB42 SLP031 P0000 T00500028
Temperature: 5.0°C ( 41°F)
Dewpoint: 2.8°C ( 37°F) [RH = 86%]
Pressure (altimeter):29.61 inches Hg (1002.8 mb) [Sea level pressure: 1003.1 mb]
Winds:from the W (280 degrees) at 14 MPH (12 knots; 6.2 m/s) gusting to 20 MPH (17 knots; 8.7 m/s)
Visibility: 7 sm ( 11 km)
Ceiling:2400 feet AGL
Clouds: scattered clouds at 1900 feet AGL, broken clouds at 2400 feet AGL, overcast cloud deck at 3200 feet AGL
Weather:-RA (light rain)
QC Flag:automated observation with no human augmentation
Text:PAVC 182156Z AUTO 27012KT 10SM FEW016 BKN027 OVC035 05/02 A2960 RMK AO2 RAE47 SLP029 P0000 T00500022
Temperature: 5.0°C ( 41°F)
Dewpoint: 2.2°C ( 36°F) [RH = 82%]
Pressure (altimeter):29.60 inches Hg (1002.5 mb) [Sea level pressure: 1002.9 mb]
Winds:from the W (270 degrees) at 14 MPH (12 knots; 6.2 m/s)
Visibility:10 or more sm (16+ km)
Ceiling:2700 feet AGL
Clouds: few clouds at 1600 feet AGL, broken clouds at 2700 feet AGL, overcast cloud deck at 3500 feet AGL
QC Flag:automated observation with no human augmentation
Text:PAVC 182056Z AUTO 27013G17KT 10SM -RA SCT017 BKN023 04/02 A2959 RMK AO2 RAB44 SLP027 P0000 60000 T00390022 51014
Temperature: 3.9°C ( 39°F)
Dewpoint: 2.2°C ( 36°F) [RH = 89%]
Pressure (altimeter):29.59 inches Hg (1002.1 mb) [Sea level pressure: 1002.7 mb]
Winds:from the W (270 degrees) at 15 MPH (13 knots; 6.7 m/s) gusting to 20 MPH (17 knots; 8.7 m/s)
Visibility:10 or more sm (16+ km)
Ceiling:2300 feet AGL
Clouds: scattered clouds at 1700 feet AGL, broken clouds at 2300 feet AGL
Weather:-RA (light rain)
QC Flag:automated observation with no human augmentation
Text:PAVC 181956Z AUTO 26015KT 10SM BKN026 04/01 A2959 RMK AO2 SLP025 T00440006
Temperature: 4.4°C ( 40°F)
Dewpoint: 0.6°C ( 33°F) [RH = 76%]
Pressure (altimeter):29.59 inches Hg (1002.1 mb) [Sea level pressure: 1002.5 mb]
Winds:from the W (260 degrees) at 17 MPH (15 knots; 7.7 m/s)
Visibility:10 or more sm (16+ km)
Ceiling:2600 feet AGL
Clouds: broken clouds at 2600 feet AGL
QC Flag:automated observation with no human augmentation

TAF for:PAVC (King Cove Arpt, AK, US)
Text:No data found